CheckWX is a tool to help pilots better visualize weather data.  It is not intended as a substitute for an official pre-flight weather briefing.

03:46:39 UTC

LFOB TAF
Paris Beauvais Tillé Airport
Beauvais/Tillé, France
TAF AMD LFOB 080235Z 0802/0824 21018KT 9999 OVC020 BECMG 0803/0805 OVC012 TEMPO 0806/0811 20018G28KT 4000 RA OVC008 FM081100 24015G25KT 9999 SCT025 TEMPO 0818/0824 24020G35KT 4000 SHRA BKN025TCU

Dec-8@
02:00 UTC

Dec-8 @ 02:00 UTC

Dec-8@
03:00 UTC

Dec-8 @ 03:00 UTC

TAF AMD LFOB 080235Z 0802/0824 21018KT 9999 OVC020

Expired

Wind
  • 210° at 18 KTS
Cloud Levels
  • Overcast at 2,000' AGL

Dec-8@
03:00 UTC

Dec-8 @ 03:00 UTC

Dec-8@
11:00 UTC

Dec-8 @ 11:00 UTC

BECMG 0803/0805 OVC012

Becoming

Becoming Conditions expected by Sun, Dec 8, 2019 @ 05:00 UTC

Wind
  • 210° at 18 KTS
Cloud Levels
  • Overcast at 1,200' AGL

Dec-8@
06:00 UTC

Dec-8 @ 06:00 UTC

Dec-8@
11:00 UTC

Dec-8 @ 11:00 UTC

TEMPO 0806/0811 20018G28KT 4000 RA OVC008

Temporary

Temporary Changes expected for less than half the time period

Wind
  • 200° at 18 KTS
  • {Gusting to 28 KTS
Conditions
Rain
Cloud Levels
  • Overcast at 800' AGL

Dec-8@
11:00 UTC

Dec-8 @ 11:00 UTC

Dec-9@
00:00 UTC

Dec-9 @ 00:00 UTC

FM081100 24015G25KT 9999 SCT025

From

From Standard forecast or significant change

Wind
  • 240° at 15 KTS
  • {Gusting to 25 KTS
Cloud Levels
  • Scattered at 2,500' AGL

Dec-8@
18:00 UTC

Dec-8 @ 18:00 UTC

Dec-9@
00:00 UTC

Dec-9 @ 00:00 UTC

TEMPO 0818/0824 24020G35KT 4000 SHRA BKN025TCU

Temporary

Temporary Changes expected for less than half the time period

Wind
  • 240° at 20 KTS
  • {Gusting to 35 KTS
Conditions
Rain
Cloud Levels
  • Broken at 2,500' AGL